Time;durP1;ratioP1;P1;durP2;ratioP2;P2;SDS_P1;SDS_P2;PMS_P1;PMS_P2;Temp;Humidity;BMP_temperature;BMP_pressure;BME280_temperature;BME280_humidity;BME280_pressure;Samples;Min_cycle;Max_cycle;Signal;HPM_P1;HPM_P2
2023/09/23 00:01:15;;;;;;;0.55;0.55;;;22.00;82.30;;;;;;4973037;28;20197;-71
2023/09/23 00:03:41;;;;;;;0.75;0.45;;;22.00;81.60;;;;;;4960436;28;20194;-71
2023/09/23 00:06:08;;;;;;;0.57;0.57;;;22.00;82.30;;;;;;4963410;28;20185;-71
2023/09/23 00:08:34;;;;;;;0.40;0.40;;;22.00;82.30;;;;;;4944390;28;20229;-71
2023/09/23 00:11:01;;;;;;;0.60;0.60;;;22.00;82.30;;;;;;4943226;28;20193;-71
2023/09/23 00:13:28;;;;;;;1.00;0.75;;;22.00;82.20;;;;;;4940929;28;20759;-71
2023/09/23 00:15:55;;;;;;;0.75;0.50;;;22.00;82.20;;;;;;4966114;28;20189;-71
2023/09/23 00:18:21;;;;;;;0.50;0.40;;;22.00;82.20;;;;;;4961427;28;20214;-71
2023/09/23 00:20:48;;;;;;;0.52;0.52;;;22.00;82.20;;;;;;4957080;28;20216;-71
2023/09/23 00:23:15;;;;;;;0.50;0.50;;;22.00;82.20;;;;;;4949017;28;20695;-71
2023/09/23 00:25:41;;;;;;;0.77;0.77;;;22.00;82.20;;;;;;4935907;28;20198;-70
2023/09/23 00:28:10;;;;;;;0.50;0.50;;;22.00;82.20;;;;;;4959486;28;20213;-71
2023/09/23 00:30:37;;;;;;;1.55;0.65;;;22.00;82.20;;;;;;4940130;28;20216;-71
2023/09/23 00:33:04;;;;;;;0.70;0.68;;;22.00;82.20;;;;;;4959368;28;20178;-71
2023/09/23 00:35:30;;;;;;;0.70;0.70;;;21.90;82.00;;;;;;4959326;28;20236;-71
2023/09/23 00:37:55;;;;;;;0.70;0.70;;;22.00;82.10;;;;;;4941600;28;20624;-71
2023/09/23 00:40:29;;;;;;;0.60;0.60;;;22.00;82.10;;;;;;4950068;28;20194;-71
2023/09/23 00:43:13;;;;;;;0.40;0.40;;;21.90;82.00;;;;;;4947716;28;20198;-71
2023/09/23 00:45:48;;;;;;;0.50;0.50;;;22.00;82.10;;;;;;4944596;28;20197;-71
2023/09/23 00:48:18;;;;;;;0.50;0.50;;;22.00;82.10;;;;;;4972725;28;20223;-71
2023/09/23 00:50:48;;;;;;;0.50;0.50;;;22.00;82.10;;;;;;4959550;28;20193;-71
2023/09/23 00:53:15;;;;;;;0.50;0.50;;;22.00;82.10;;;;;;4927192;28;20185;-71
2023/09/23 00:55:47;;;;;;;0.70;0.70;;;21.90;82.00;;;;;;4959071;28;20186;-71
2023/09/23 00:58:14;;;;;;;0.40;0.40;;;22.00;82.10;;;;;;4962767;28;20212;-71
2023/09/23 01:00:43;;;;;;;0.45;0.45;;;22.00;82.10;;;;;;4958878;28;20208;-71
2023/09/23 01:03:13;;;;;;;0.55;0.55;;;21.90;82.00;;;;;;4942670;28;20181;-71
2023/09/23 01:05:44;;;;;;;0.60;0.60;;;21.90;82.00;;;;;;4939652;28;20221;-71
2023/09/23 01:08:20;;;;;;;0.47;0.40;;;21.90;82.00;;;;;;4958479;28;20225;-71
2023/09/23 01:10:48;;;;;;;0.85;0.70;;;21.90;82.00;;;;;;4947334;28;20200;-71
2023/09/23 01:13:19;;;;;;;0.40;0.40;;;22.00;82.10;;;;;;4939866;28;20188;-71
2023/09/23 01:15:46;;;;;;;0.52;0.52;;;21.90;82.00;;;;;;4962729;28;20189;-71
2023/09/23 01:18:24;;;;;;;0.75;0.60;;;21.90;82.00;;;;;;4976336;28;20213;-71
2023/09/23 01:20:55;;;;;;;0.60;0.60;;;21.90;82.00;;;;;;4962439;28;20201;-71
2023/09/23 01:23:21;;;;;;;0.50;0.50;;;21.90;82.00;;;;;;4959198;28;20197;-71
2023/09/23 01:25:48;;;;;;;0.52;0.52;;;;;;;;;;4942999;28;20280;-71
2023/09/23 01:28:14;;;;;;;0.82;0.70;;;21.90;81.30;;;;;;4940730;28;20290;-71
2023/09/23 01:30:43;;;;;;;0.50;0.50;;;21.90;82.00;;;;;;4969578;28;20197;-73
2023/09/23 01:33:10;;;;;;;0.57;0.57;;;21.90;81.90;;;;;;4949090;28;20216;-69
2023/09/23 01:35:36;;;;;;;0.50;0.50;;;21.90;81.80;;;;;;4981104;28;20235;-71
2023/09/23 01:38:06;;;;;;;0.60;0.60;;;21.90;81.80;;;;;;4945515;28;20287;-71
2023/09/23 01:40:35;;;;;;;1.23;0.50;;;21.90;81.80;;;;;;4946200;28;20193;-71
2023/09/23 01:43:04;;;;;;;0.50;0.50;;;21.90;81.70;;;;;;4949955;28;20190;-71
2023/09/23 01:45:30;;;;;;;0.57;0.57;;;21.90;81.70;;;;;;4945676;28;20808;-71
2023/09/23 01:47:58;;;;;;;0.60;0.60;;;21.90;81.80;;;;;;4947201;28;20304;-71
2023/09/23 01:50:26;;;;;;;1.15;0.73;;;21.90;81.70;;;;;;4946995;28;20257;-71
2023/09/23 01:52:54;;;;;;;0.50;0.50;;;21.90;81.70;;;;;;4964323;28;20193;-71
2023/09/23 01:55:20;;;;;;;1.00;0.60;;;21.90;81.70;;;;;;4961295;28;20204;-71
2023/09/23 01:57:48;;;;;;;0.52;0.52;;;21.90;81.70;;;;;;4958673;28;20218;-70
2023/09/23 02:00:28;;;;;;;0.65;0.57;;;21.90;81.70;;;;;;4977489;28;20259;-71
2023/09/23 02:02:55;;;;;;;0.60;0.60;;;21.90;82.20;;;;;;4961302;28;20197;-71
2023/09/23 02:05:27;;;;;;;0.63;0.63;;;21.90;81.70;;;;;;4942625;28;20197;-71
2023/09/23 02:07:54;;;;;;;0.35;0.35;;;21.90;81.60;;;;;;4950768;28;20308;-71
2023/09/23 02:10:26;;;;;;;1.02;0.50;;;21.90;82.40;;;;;;4946763;28;20201;-71
2023/09/23 02:12:53;;;;;;;0.60;0.60;;;21.90;81.60;;;;;;4960770;28;20276;-71
2023/09/23 02:15:20;;;;;;;0.50;0.50;;;21.90;81.60;;;;;;4960689;28;20264;-71
2023/09/23 02:17:47;;;;;;;0.65;0.57;;;21.90;81.50;;;;;;4947342;28;20712;-71
2023/09/23 02:20:19;;;;;;;0.60;0.60;;;21.90;81.60;;;;;;4947275;28;20189;-71
2023/09/23 02:22:54;;;;;;;0.60;0.60;;;21.90;81.50;;;;;;4959333;28;20273;-70
2023/09/23 02:25:24;;;;;;;0.65;0.65;;;21.90;81.60;;;;;;4954452;28;20220;-71
2023/09/23 02:27:51;;;;;;;0.45;0.45;;;21.90;81.60;;;;;;4976347;28;20257;-71
2023/09/23 02:30:18;;;;;;;0.55;0.55;;;21.90;81.60;;;;;;4955991;28;20240;-71
2023/09/23 02:32:47;;;;;;;0.65;0.47;;;21.80;81.40;;;;;;4953368;28;20185;-71
2023/09/23 02:35:15;;;;;;;0.55;0.40;;;21.90;82.30;;;;;;4957594;28;20186;-73
2023/09/23 02:37:48;;;;;;;0.68;0.60;;;21.90;81.50;;;;;;4937440;28;20205;-71
2023/09/23 02:40:14;;;;;;;0.70;0.68;;;21.80;81.30;;;;;;4949827;28;20676;-71
2023/09/23 02:42:43;;;;;;;0.50;0.50;;;21.90;81.50;;;;;;4951328;29;20210;-71
2023/09/23 02:45:12;;;;;;;0.50;0.50;;;21.90;81.40;;;;;;4956664;28;20578;-71
2023/09/23 02:47:40;;;;;;;0.52;0.52;;;21.90;81.40;;;;;;4955578;28;20304;-71
2023/09/23 02:50:10;;;;;;;0.50;0.50;;;21.90;81.40;;;;;;4984231;28;20228;-71
2023/09/23 02:52:44;;;;;;;0.60;0.50;;;21.90;81.30;;;;;;4959484;28;20190;-71
2023/09/23 02:55:13;;;;;;;0.43;0.40;;;21.90;81.30;;;;;;4951502;28;20195;-71
2023/09/23 02:57:41;;;;;;;1.38;0.55;;;21.90;81.30;;;;;;4973477;28;20224;-71
2023/09/23 03:00:22;;;;;;;0.57;0.50;;;21.90;81.20;;;;;;4975630;28;20680;-71
2023/09/23 03:02:54;;;;;;;0.50;0.50;;;21.80;81.90;;;;;;4951523;28;20193;-72
2023/09/23 03:05:26;;;;;;;0.60;0.60;;;21.80;81.20;;;;;;4939396;28;20591;-71
2023/09/23 03:07:59;;;;;;;1.38;0.68;;;21.80;81.20;;;;;;4975182;28;20595;-71
2023/09/23 03:10:32;;;;;;;0.63;0.50;;;21.80;81.20;;;;;;4974529;28;20224;-71
2023/09/23 03:13:06;;;;;;;0.55;0.55;;;21.80;81.30;;;;;;4958601;28;20197;-71
2023/09/23 03:15:58;;;;;;;0.60;0.60;;;21.90;81.30;;;;;;4942695;28;20190;-71
2023/09/23 03:18:33;;;;;;;0.75;0.60;;;21.80;81.10;;;;;;4941068;28;20217;-71
2023/09/23 03:21:10;;;;;;;0.70;0.65;;;21.80;81.20;;;;;;4952260;28;20197;-71
2023/09/23 03:23:39;;;;;;;1.13;0.60;;;21.80;81.10;;;;;;4927701;28;20193;-70
2023/09/23 03:26:09;;;;;;;0.55;0.55;;;21.80;81.10;;;;;;4980951;28;20280;-71
2023/09/23 03:28:37;;;;;;;0.60;0.60;;;21.80;81.10;;;;;;4970667;28;20593;-71
2023/09/23 03:31:03;;;;;;;0.75;0.73;;;21.80;81.10;;;;;;4952694;28;20190;-70
2023/09/23 03:33:31;;;;;;;0.50;0.50;;;21.80;81.00;;;;;;4939152;28;20197;-71
2023/09/23 03:35:57;;;;;;;0.52;0.52;;;21.80;81.00;;;;;;4942549;28;20282;-72
2023/09/23 03:38:24;;;;;;;0.60;0.60;;;21.80;81.00;;;;;;4959907;28;20678;-71
2023/09/23 03:41:03;;;;;;;0.50;0.50;;;21.80;81.00;;;;;;4958407;28;20189;-71
2023/09/23 03:43:29;;;;;;;0.40;0.40;;;21.80;81.00;;;;;;4955987;28;20197;-71
2023/09/23 03:45:56;;;;;;;0.85;0.60;;;21.80;81.00;;;;;;4959376;28;20196;-71
2023/09/23 03:48:22;;;;;;;0.60;0.60;;;21.70;80.90;;;;;;4957665;28;20224;-71
2023/09/23 03:50:52;;;;;;;0.52;0.52;;;21.80;80.90;;;;;;4956445;28;20182;-71
2023/09/23 03:53:22;;;;;;;0.70;0.70;;;21.80;81.00;;;;;;4943232;28;20208;-71
2023/09/23 03:55:49;;;;;;;0.68;0.57;;;21.80;81.00;;;;;;4945272;28;20182;-71
2023/09/23 03:58:19;;;;;;;0.60;0.50;;;21.80;80.80;;;;;;4954929;28;20205;-71
2023/09/23 04:00:45;;;;;;;0.43;0.43;;;21.80;80.90;;;;;;4957575;28;20205;-71
2023/09/23 04:03:10;;;;;;;0.60;0.60;;;21.80;80.80;;;;;;4965464;28;20810;-71
2023/09/23 04:05:36;;;;;;;0.88;0.70;;;21.80;80.80;;;;;;4957044;28;20196;-71
2023/09/23 04:08:03;;;;;;;0.50;0.50;;;21.80;80.90;;;;;;4956498;28;20324;-71
2023/09/23 04:10:29;;;;;;;0.70;0.60;;;21.80;80.80;;;;;;4963973;28;20193;-71
2023/09/23 04:12:55;;;;;;;0.60;0.60;;;21.80;80.80;;;;;;4957233;28;20201;-71
2023/09/23 04:15:22;;;;;;;1.75;0.70;;;21.80;80.80;;;;;;4940773;28;20207;-71
2023/09/23 04:17:48;;;;;;;0.80;0.50;;;21.70;80.60;;;;;;4955831;28;20208;-71
2023/09/23 04:20:17;;;;;;;0.40;0.40;;;21.80;80.80;;;;;;4957149;28;20225;-71
2023/09/23 04:22:46;;;;;;;0.32;0.32;;;21.80;80.80;;;;;;4945443;28;20208;-71
2023/09/23 04:25:15;;;;;;;0.60;0.60;;;21.80;80.80;;;;;;4963751;28;20200;-71
2023/09/23 04:27:41;;;;;;;2.15;0.50;;;21.70;80.60;;;;;;4952570;28;20309;-71
2023/09/23 04:30:09;;;;;;;0.45;0.40;;;21.80;80.80;;;;;;4940869;28;20265;-71
2023/09/23 04:32:38;;;;;;;0.50;0.50;;;21.70;80.60;;;;;;4933955;28;20204;-71
2023/09/23 04:35:14;;;;;;;0.80;0.80;;;21.70;80.90;;;;;;4948671;28;20196;-71
2023/09/23 04:37:40;;;;;;;0.50;0.50;;;21.70;80.60;;;;;;4941970;28;20201;-71
2023/09/23 04:40:09;;;;;;;0.98;0.65;;;21.70;80.60;;;;;;4940598;28;20197;-71
2023/09/23 04:42:39;;;;;;;0.57;0.50;;;21.70;80.60;;;;;;4934315;28;20260;-71
2023/09/23 04:45:07;;;;;;;0.60;0.60;;;21.70;80.70;;;;;;4940351;28;20212;-71
2023/09/23 04:47:35;;;;;;;0.50;0.50;;;21.70;80.60;;;;;;4955290;28;20217;-71
2023/09/23 04:50:05;;;;;;;0.73;0.55;;;21.70;80.60;;;;;;4940980;28;20197;-71
2023/09/23 04:52:34;;;;;;;0.60;0.60;;;21.70;80.60;;;;;;4940239;28;20194;-71
2023/09/23 04:55:02;;;;;;;0.40;0.40;;;21.70;80.70;;;;;;4940151;28;20193;-71
2023/09/23 04:57:28;;;;;;;0.60;0.60;;;21.70;80.60;;;;;;4939767;28;20214;-71
2023/09/23 04:59:54;;;;;;;0.65;0.65;;;21.70;80.60;;;;;;4939563;28;20201;-71
2023/09/23 05:02:21;;;;;;;0.50;0.50;;;21.70;80.60;;;;;;4956443;28;20194;-70
2023/09/23 05:04:47;;;;;;;0.50;0.50;;;21.70;80.60;;;;;;4955354;28;20215;-71
2023/09/23 05:07:13;;;;;;;0.60;0.60;;;21.70;80.60;;;;;;4939389;28;20221;-71
2023/09/23 05:09:41;;;;;;;0.40;0.40;;;21.70;80.60;;;;;;4955838;28;20194;-71
2023/09/23 05:12:08;;;;;;;0.65;0.65;;;21.70;80.50;;;;;;4955761;28;20204;-71
2023/09/23 05:14:34;;;;;;;0.60;0.60;;;21.70;80.70;;;;;;4939901;28;20196;-71
2023/09/23 05:17:00;;;;;;;0.40;0.40;;;21.70;80.50;;;;;;4955373;28;20217;-71
2023/09/23 05:19:27;;;;;;;0.50;0.50;;;21.70;80.50;;;;;;4971972;28;20197;-72
2023/09/23 05:21:53;;;;;;;0.63;0.50;;;21.70;80.40;;;;;;4939188;29;20554;-70
2023/09/23 05:24:20;;;;;;;0.63;0.52;;;21.70;80.40;;;;;;4952029;28;20225;-71
2023/09/23 05:26:49;;;;;;;0.50;0.50;;;21.70;80.30;;;;;;4972283;28;20192;-71
2023/09/23 05:29:15;;;;;;;0.73;0.73;;;21.70;80.40;;;;;;4955580;28;20194;-71
2023/09/23 05:31:41;;;;;;;0.63;0.63;;;21.70;80.10;;;;;;4955446;28;20213;-71
2023/09/23 05:34:07;;;;;;;0.60;0.60;;;21.70;80.20;;;;;;4955439;28;20224;-71
2023/09/23 05:36:33;;;;;;;0.60;0.60;;;21.70;80.20;;;;;;4946904;28;20204;-71
2023/09/23 05:38:59;;;;;;;0.50;0.50;;;21.70;80.20;;;;;;4946952;28;20189;-71
2023/09/23 05:41:25;;;;;;;1.33;0.50;;;21.60;80.20;;;;;;4946878;28;20194;-71
2023/09/23 05:43:54;;;;;;;0.70;0.55;;;21.70;80.30;;;;;;4952328;28;20275;-71
2023/09/23 05:46:20;;;;;;;0.70;0.70;;;21.70;80.30;;;;;;4957606;28;20215;-71
2023/09/23 05:48:48;;;;;;;0.52;0.52;;;21.70;80.30;;;;;;4961501;28;20217;-71
2023/09/23 05:51:15;;;;;;;0.70;0.70;;;21.70;80.30;;;;;;4972207;28;20683;-71
2023/09/23 05:53:42;;;;;;;0.60;0.60;;;21.70;80.20;;;;;;4947230;28;20193;-71
2023/09/23 05:56:08;;;;;;;0.50;0.50;;;21.70;80.30;;;;;;4987840;28;20664;-71
2023/09/23 05:58:34;;;;;;;0.60;0.60;;;21.70;80.30;;;;;;4964016;28;20217;-71
2023/09/23 06:01:00;;;;;;;0.80;0.80;;;21.60;80.10;;;;;;4964915;28;20359;-72
2023/09/23 06:03:26;;;;;;;0.82;0.60;;;21.60;80.30;;;;;;4973303;28;20190;-71
2023/09/23 06:05:52;;;;;;;0.60;0.60;;;21.70;80.30;;;;;;4951842;28;20193;-71
2023/09/23 06:08:17;;;;;;;0.50;0.50;;;21.70;80.30;;;;;;4949455;28;20319;-71
2023/09/23 06:10:43;;;;;;;0.60;0.60;;;21.70;80.20;;;;;;4961075;28;20188;-71
2023/09/23 06:13:12;;;;;;;0.50;0.50;;;21.60;80.20;;;;;;4969166;28;20553;-71
2023/09/23 06:15:38;;;;;;;0.60;0.60;;;21.60;80.00;;;;;;4950777;28;20196;-71
2023/09/23 06:18:06;;;;;;;0.70;0.70;;;21.60;80.20;;;;;;4961450;28;20217;-71
2023/09/23 06:20:33;;;;;;;0.75;0.75;;;21.60;80.10;;;;;;4972284;28;20248;-71
2023/09/23 06:22:59;;;;;;;0.60;0.60;;;21.60;80.00;;;;;;4958271;28;20189;-71
2023/09/23 06:25:25;;;;;;;0.50;0.50;;;21.60;80.00;;;;;;4938226;28;20222;-70
2023/09/23 06:27:51;;;;;;;0.70;0.70;;;21.60;80.10;;;;;;4946064;28;20228;-71
2023/09/23 06:30:17;;;;;;;0.65;0.65;;;21.60;80.00;;;;;;4989899;28;20177;-71
2023/09/23 06:32:44;;;;;;;0.80;0.80;;;21.60;80.10;;;;;;4962559;28;20193;-70
2023/09/23 06:35:11;;;;;;;1.15;1.00;;;21.60;80.00;;;;;;4961455;28;20189;-70
2023/09/23 06:37:37;;;;;;;0.90;0.90;;;21.60;80.00;;;;;;4967329;28;20263;-71
2023/09/23 06:40:04;;;;;;;1.10;0.70;;;21.60;80.00;;;;;;4959435;28;20275;-71
2023/09/23 06:42:30;;;;;;;1.00;0.80;;;21.60;80.00;;;;;;4951363;28;20194;-71
2023/09/23 06:44:56;;;;;;;2.10;0.90;;;21.70;80.10;;;;;;4975659;28;20181;-71
2023/09/23 06:47:21;;;;;;;0.93;0.85;;;21.70;80.00;;;;;;4943708;28;20218;-71
2023/09/23 06:49:47;;;;;;;1.45;0.90;;;21.60;80.00;;;;;;4975999;28;20239;-71
2023/09/23 06:52:13;;;;;;;1.30;1.05;;;21.70;80.20;;;;;;4967872;28;20189;-72
2023/09/23 06:54:39;;;;;;;0.70;0.70;;;21.70;80.20;;;;;;4967098;28;20188;-72
2023/09/23 06:57:04;;;;;;;0.70;0.70;;;21.70;80.10;;;;;;4960883;28;20209;-72
2023/09/23 06:59:30;;;;;;;1.02;0.80;;;21.70;80.10;;;;;;4948207;28;20202;-72
2023/09/23 07:01:56;;;;;;;1.08;1.00;;;21.70;80.30;;;;;;4953530;28;20204;-72
2023/09/23 07:04:22;;;;;;;0.70;0.70;;;21.70;80.00;;;;;;4957127;28;20648;-72
2023/09/23 07:06:48;;;;;;;0.90;0.80;;;21.60;79.90;;;;;;4953867;28;20209;-72
2023/09/23 07:09:13;;;;;;;1.20;1.10;;;21.70;80.00;;;;;;4944198;28;20187;-71
2023/09/23 07:11:40;;;;;;;1.02;0.93;;;21.70;80.00;;;;;;4946149;28;20190;-71
2023/09/23 07:14:06;;;;;;;0.80;0.80;;;21.70;80.00;;;;;;4964069;28;20186;-71
2023/09/23 07:16:33;;;;;;;0.70;0.70;;;21.70;80.00;;;;;;4941003;28;20620;-70
2023/09/23 07:19:00;;;;;;;0.70;0.70;;;21.70;79.90;;;;;;4968123;28;20247;-72
2023/09/23 07:21:27;;;;;;;0.60;0.60;;;21.70;79.70;;;;;;4982477;28;20220;-71
2023/09/23 07:23:53;;;;;;;0.82;0.82;;;21.70;79.70;;;;;;4963927;28;20197;-70
2023/09/23 07:26:22;;;;;;;0.68;0.68;;;21.70;79.50;;;;;;4947464;28;20196;-71
2023/09/23 07:28:50;;;;;;;1.00;0.90;;;21.70;79.60;;;;;;4958611;28;20213;-71
2023/09/23 07:31:17;;;;;;;0.82;0.68;;;21.70;79.50;;;;;;4970230;28;20216;-71
2023/09/23 07:33:44;;;;;;;1.95;1.10;;;21.70;80.40;;;;;;4950776;28;20188;-71
2023/09/23 07:36:12;;;;;;;0.70;0.70;;;21.70;79.60;;;;;;4966454;28;20189;-71
2023/09/23 07:38:38;;;;;;;0.80;0.80;;;21.70;79.70;;;;;;4940843;28;20205;-71
2023/09/23 07:41:05;;;;;;;0.88;0.75;;;21.70;79.90;;;;;;4931526;28;20281;-71
2023/09/23 07:43:31;;;;;;;0.90;0.80;;;21.70;79.90;;;;;;4971422;28;20276;-71
2023/09/23 07:45:57;;;;;;;1.17;0.90;;;21.70;79.80;;;;;;4953330;28;20241;-70
2023/09/23 07:48:23;;;;;;;1.00;0.90;;;21.70;79.80;;;;;;4964522;28;20256;-71
2023/09/23 07:50:49;;;;;;;1.45;0.90;;;21.70;79.70;;;;;;4951030;28;20185;-71
2023/09/23 07:53:15;;;;;;;0.90;0.75;;;21.70;79.80;;;;;;4952947;28;20179;-71
2023/09/23 07:55:41;;;;;;;1.00;0.85;;;21.70;79.80;;;;;;4962051;28;20204;-71
2023/09/23 07:58:07;;;;;;;0.80;0.70;;;21.70;79.60;;;;;;4948255;28;20213;-71
2023/09/23 08:00:33;;;;;;;0.70;0.70;;;21.70;79.60;;;;;;4948063;28;20197;-71
2023/09/23 08:02:58;;;;;;;0.50;0.50;;;21.70;79.70;;;;;;4961742;28;20192;-71
2023/09/23 08:05:25;;;;;;;0.80;0.80;;;21.70;79.50;;;;;;4956175;28;20203;-71
2023/09/23 08:07:51;;;;;;;0.60;0.60;;;21.70;79.60;;;;;;4949849;28;20240;-71
2023/09/23 08:10:17;;;;;;;0.80;0.80;;;21.70;79.50;;;;;;4949096;28;20247;-71
2023/09/23 08:12:44;;;;;;;0.80;0.80;;;21.70;79.50;;;;;;4956159;28;20540;-71
2023/09/23 08:15:11;;;;;;;1.25;0.98;;;21.70;79.70;;;;;;4962320;28;20235;-71
2023/09/23 08:17:39;;;;;;;0.93;0.82;;;21.70;79.60;;;;;;4950364;28;20249;-71
2023/09/23 08:20:17;;;;;;;1.15;0.80;;;21.70;79.70;;;;;;4959336;28;20217;-71
2023/09/23 08:22:53;;;;;;;0.60;0.60;;;21.70;79.60;;;;;;4961514;28;20280;-71
2023/09/23 08:25:19;;;;;;;0.90;0.90;;;21.70;79.40;;;;;;4946052;28;20188;-71
2023/09/23 08:27:45;;;;;;;1.98;0.90;;;21.70;79.40;;;;;;4962179;28;20770;-71
2023/09/23 08:30:15;;;;;;;0.70;0.70;;;21.70;79.50;;;;;;4946166;28;20190;-71
2023/09/23 08:32:41;;;;;;;1.50;0.80;;;21.70;79.60;;;;;;4939996;28;20209;-71
2023/09/23 08:35:07;;;;;;;0.68;0.68;;;21.70;79.30;;;;;;4945939;28;20185;-71
2023/09/23 08:37:35;;;;;;;0.80;0.50;;;21.70;79.50;;;;;;4957283;28;20220;-72
2023/09/23 08:40:05;;;;;;;0.98;0.70;;;21.70;79.50;;;;;;4977758;28;20272;-70
2023/09/23 08:42:33;;;;;;;0.85;0.85;;;21.70;79.30;;;;;;4986158;28;20337;-71
2023/09/23 08:44:59;;;;;;;0.80;0.60;;;21.70;79.30;;;;;;4965562;28;20192;-71
2023/09/23 08:47:26;;;;;;;0.95;0.75;;;21.70;79.40;;;;;;4956413;28;20626;-71
2023/09/23 08:49:53;;;;;;;1.00;0.70;;;21.70;79.30;;;;;;4943844;28;20686;-71
2023/09/23 08:52:19;;;;;;;0.73;0.73;;;21.70;79.90;;;;;;4957900;28;20193;-71
2023/09/23 08:54:50;;;;;;;1.02;0.82;;;21.70;79.00;;;;;;4949777;28;20188;-71
2023/09/23 08:57:16;;;;;;;0.70;0.70;;;21.70;78.70;;;;;;4938708;28;20205;-71
2023/09/23 08:59:43;;;;;;;1.67;0.70;;;21.70;78.70;;;;;;4955324;28;20196;-70
2023/09/23 09:02:10;;;;;;;0.85;0.65;;;21.70;79.00;;;;;;4955203;28;20197;-70
2023/09/23 09:04:36;;;;;;;0.85;0.80;;;21.70;78.80;;;;;;4961199;28;20552;-70
2023/09/23 09:07:03;;;;;;;0.93;0.88;;;21.70;79.00;;;;;;4944465;28;20228;-71
2023/09/23 09:09:29;;;;;;;1.77;0.75;;;21.70;78.90;;;;;;4953941;28;20205;-71
2023/09/23 09:11:55;;;;;;;0.95;0.80;;;21.70;78.60;;;;;;4931345;29;20186;-70
2023/09/23 09:14:22;;;;;;;1.23;0.85;;;21.70;78.60;;;;;;4944071;28;20221;-71
2023/09/23 09:16:48;;;;;;;1.05;0.90;;;21.70;78.10;;;;;;4950862;28;20209;-71
2023/09/23 09:19:14;;;;;;;1.15;1.02;;;21.70;78.10;;;;;;4951920;28;20182;-71
2023/09/23 09:21:41;;;;;;;0.80;0.70;;;21.70;78.20;;;;;;4962306;28;20244;-71
2023/09/23 09:24:09;;;;;;;0.93;0.60;;;21.70;78.10;;;;;;4955272;28;20190;-70
2023/09/23 09:26:40;;;;;;;0.70;0.70;;;21.70;78.20;;;;;;4953251;28;20182;-71
2023/09/23 09:29:06;;;;;;;0.90;0.68;;;21.70;77.70;;;;;;4961037;28;20277;-72
2023/09/23 09:31:38;;;;;;;1.13;0.70;;;21.70;78.00;;;;;;4951848;28;20273;-71
2023/09/23 09:34:11;;;;;;;0.80;0.80;;;21.60;78.00;;;;;;4933868;28;20191;-71
2023/09/23 09:36:38;;;;;;;0.73;0.70;;;21.70;78.80;;;;;;4965070;28;20194;-71
2023/09/23 09:39:07;;;;;;;1.70;0.60;;;21.70;78.00;;;;;;4969155;28;20181;-71
2023/09/23 09:41:54;;;;;;;1.35;0.80;;;21.70;77.70;;;;;;4942175;28;20194;-71
2023/09/23 09:44:23;;;;;;;2.03;0.85;;;21.70;75.60;;;;;;4945868;28;20200;-69
2023/09/23 09:46:50;;;;;;;2.42;0.73;;;21.60;77.10;;;;;;4945896;28;20220;-70
2023/09/23 09:49:17;;;;;;;1.92;0.75;;;21.60;77.10;;;;;;4958628;28;20190;-70
2023/09/23 09:51:48;;;;;;;1.30;0.50;;;21.70;77.10;;;;;;4960861;28;20224;-70
2023/09/23 09:54:20;;;;;;;1.38;0.70;;;21.70;77.10;;;;;;4967494;28;20189;-70
2023/09/23 09:56:50;;;;;;;0.52;0.50;;;21.70;77.20;;;;;;4964650;28;20197;-70
2023/09/23 09:59:27;;;;;;;0.75;0.60;;;21.70;77.30;;;;;;4954943;28;20212;-70
2023/09/23 10:01:57;;;;;;;1.10;0.90;;;21.70;77.10;;;;;;4957166;28;20279;-70
2023/09/23 10:04:29;;;;;;;1.73;0.75;;;21.70;77.10;;;;;;4960301;28;20276;-70
2023/09/23 10:06:56;;;;;;;0.80;0.60;;;21.70;77.30;;;;;;4966110;28;20206;-70
2023/09/23 10:09:30;;;;;;;1.80;0.90;;;21.70;77.00;;;;;;4942635;28;20297;-70
2023/09/23 10:11:58;;;;;;;1.55;0.60;;;21.70;76.80;;;;;;4952047;28;20190;-70
2023/09/23 10:14:26;;;;;;;0.80;0.63;;;21.70;76.70;;;;;;4966784;28;20194;-70
2023/09/23 10:17:04;;;;;;;0.93;0.70;;;21.70;76.90;;;;;;4952794;28;20245;-70
2023/09/23 10:19:38;;;;;;;1.52;0.80;;;21.70;76.80;;;;;;4950813;28;20613;-70
2023/09/23 10:22:21;;;;;;;1.48;0.70;;;21.70;76.70;;;;;;4939754;29;20185;-70
2023/09/23 10:25:04;;;;;;;0.80;0.70;;;21.70;76.90;;;;;;4941929;28;20189;-70
2023/09/23 10:27:32;;;;;;;0.80;0.80;;;21.70;77.00;;;;;;4964281;28;20236;-70
2023/09/23 10:29:59;;;;;;;0.73;0.68;;;21.70;76.90;;;;;;4962828;28;20239;-70
2023/09/23 10:32:26;;;;;;;0.75;0.50;;;21.70;76.80;;;;;;4946028;28;20629;-70
2023/09/23 10:34:58;;;;;;;1.55;0.73;;;21.70;76.90;;;;;;4940548;28;20257;-70
2023/09/23 10:37:32;;;;;;;1.95;0.70;;;21.70;77.00;;;;;;4975634;28;20224;-70
2023/09/23 10:40:09;;;;;;;0.90;0.70;;;21.70;76.80;;;;;;4981707;28;20297;-70
2023/09/23 10:42:35;;;;;;;1.65;0.82;;;21.70;76.50;;;;;;4949423;28;20193;-70
2023/09/23 10:45:01;;;;;;;0.70;0.45;;;21.70;76.40;;;;;;4946618;28;20190;-70
2023/09/23 10:47:28;;;;;;;1.38;0.68;;;21.70;76.50;;;;;;4956939;28;20222;-70
2023/09/23 10:49:53;;;;;;;1.40;0.77;;;21.70;76.00;;;;;;4979031;28;20276;-70
2023/09/23 10:52:20;;;;;;;1.52;0.65;;;21.70;76.10;;;;;;4944399;28;20321;-70
2023/09/23 10:54:51;;;;;;;0.60;0.60;;;21.70;76.30;;;;;;4980911;28;20217;-70
2023/09/23 10:57:16;;;;;;;0.95;0.60;;;21.70;76.10;;;;;;4963141;28;20216;-70
2023/09/23 10:59:45;;;;;;;0.70;0.70;;;21.70;76.00;;;;;;4968937;28;20189;-70
2023/09/23 11:02:13;;;;;;;0.93;0.80;;;21.80;76.40;;;;;;4957207;28;20209;-70
2023/09/23 11:04:39;;;;;;;0.90;0.70;;;21.70;76.40;;;;;;4962533;28;20197;-70
2023/09/23 11:07:06;;;;;;;0.80;0.70;;;21.80;76.50;;;;;;4954449;28;20228;-70
2023/09/23 11:09:32;;;;;;;1.60;0.63;;;21.70;76.40;;;;;;4973908;28;20201;-70
2023/09/23 11:12:15;;;;;;;1.50;0.55;;;21.80;76.60;;;;;;4947294;28;20260;-70
2023/09/23 11:14:48;;;;;;;0.85;0.85;;;21.80;76.70;;;;;;4963018;28;20202;-70
2023/09/23 11:17:29;;;;;;;1.00;0.70;;;21.80;76.10;;;;;;4988381;28;20212;-70
2023/09/23 11:19:59;;;;;;;1.95;0.73;;;21.80;76.10;;;;;;4944012;29;20213;-70
2023/09/23 11:22:26;;;;;;;1.08;0.70;;;21.80;76.30;;;;;;4956473;28;20204;-70
2023/09/23 11:24:57;;;;;;;1.02;0.80;;;21.80;75.70;;;;;;4988153;28;20237;-70
2023/09/23 11:27:25;;;;;;;1.35;0.80;;;21.80;75.80;;;;;;4957099;28;20229;-70
2023/09/23 11:29:52;;;;;;;0.73;0.73;;;21.80;75.80;;;;;;4967838;28;20188;-70
2023/09/23 11:32:24;;;;;;;0.80;0.80;;;21.80;75.90;;;;;;4946211;28;20194;-70
2023/09/23 11:34:52;;;;;;;1.00;0.80;;;21.80;75.70;;;;;;4976158;28;20292;-70
2023/09/23 11:37:25;;;;;;;1.02;0.80;;;21.80;75.60;;;;;;4943551;28;20237;-70
2023/09/23 11:39:51;;;;;;;1.27;0.63;;;21.80;75.80;;;;;;4974624;28;20240;-70
2023/09/23 11:42:16;;;;;;;0.73;0.73;;;21.80;76.10;;;;;;4957301;28;20189;-70
2023/09/23 11:44:43;;;;;;;0.60;0.60;;;21.80;76.20;;;;;;4957329;28;20200;-70
2023/09/23 11:47:10;;;;;;;1.60;0.80;;;21.80;76.10;;;;;;4979356;28;20224;-70
2023/09/23 11:49:36;;;;;;;0.68;0.65;;;21.80;76.20;;;;;;4971370;28;20250;-70
2023/09/23 11:52:12;;;;;;;0.52;0.52;;;21.80;75.90;;;;;;4977323;28;20278;-70
2023/09/23 11:54:42;;;;;;;0.60;0.60;;;21.80;75.90;;;;;;4935007;28;20675;-70
2023/09/23 11:57:08;;;;;;;1.33;1.00;;;21.80;75.90;;;;;;4948034;28;20229;-70
2023/09/23 11:59:35;;;;;;;0.70;0.70;;;21.80;76.30;;;;;;4940791;28;20190;-70
2023/09/23 12:02:02;;;;;;;0.70;0.70;;;21.80;75.90;;;;;;4936664;28;20611;-70
2023/09/23 12:04:28;;;;;;;1.15;0.80;;;21.80;75.50;;;;;;4951979;28;20197;-70
2023/09/23 12:06:53;;;;;;;0.75;0.75;;;21.80;75.30;;;;;;4937220;28;20260;-70
2023/09/23 12:09:19;;;;;;;0.80;0.60;;;21.80;75.80;;;;;;4954982;28;20280;-70
2023/09/23 12:11:45;;;;;;;0.60;0.60;;;21.80;74.90;;;;;;4951702;28;20186;-70
2023/09/23 12:14:12;;;;;;;1.95;0.85;;;21.80;75.20;;;;;;4935729;28;20260;-70
2023/09/23 12:16:37;;;;;;;0.90;0.60;;;21.80;75.20;;;;;;4956212;28;20236;-70
2023/09/23 12:19:03;;;;;;;0.73;0.73;;;21.80;75.20;;;;;;4968841;28;20257;-70
2023/09/23 12:21:30;;;;;;;0.93;0.82;;;21.80;74.90;;;;;;4966071;28;20197;-70
2023/09/23 12:23:59;;;;;;;1.05;0.70;;;21.80;74.90;;;;;;4951846;28;20192;-70
2023/09/23 12:26:28;;;;;;;1.10;0.90;;;21.80;74.90;;;;;;4940107;28;20289;-71
2023/09/23 12:28:54;;;;;;;1.13;0.60;;;21.80;74.90;;;;;;4936511;28;20218;-70
2023/09/23 12:31:20;;;;;;;0.80;0.70;;;21.80;75.40;;;;;;4969037;28;20201;-70
2023/09/23 12:33:46;;;;;;;0.80;0.60;;;21.80;75.50;;;;;;4935754;28;20201;-70
2023/09/23 12:36:12;;;;;;;0.73;0.55;;;21.80;75.10;;;;;;4955882;28;20189;-70
2023/09/23 12:38:37;;;;;;;1.48;0.70;;;21.80;75.10;;;;;;4939650;28;20209;-70
2023/09/23 12:41:03;;;;;;;0.70;0.70;;;21.90;75.20;;;;;;4951771;28;20196;-70
2023/09/23 12:43:29;;;;;;;1.00;0.70;;;21.80;74.90;;;;;;4973915;28;20198;-70
2023/09/23 12:45:55;;;;;;;0.60;0.60;;;21.80;74.90;;;;;;4940131;28;20194;-71
2023/09/23 12:48:20;;;;;;;0.65;0.60;;;21.80;74.90;;;;;;4935202;28;20214;-70
2023/09/23 12:50:46;;;;;;;0.70;0.70;;;21.80;74.90;;;;;;4932023;28;20649;-70
2023/09/23 12:53:12;;;;;;;0.88;0.75;;;21.80;74.90;;;;;;4958110;28;20213;-71